Time;durP1;ratioP1;P1;durP2;ratioP2;P2;SDS_P1;SDS_P2;PMS_P1;PMS_P2;Temp;Humidity;BMP_temperature;BMP_pressure;BME280_temperature;BME280_humidity;BME280_pressure;Samples;Min_cycle;Max_cycle;Signal;HPM_P1;HPM_P2
2023/11/19 00:01:39;;;;;;;0.93;0.70;;;11.10;99.90;;;;;;5047576;28;20029;-59
2023/11/19 00:04:04;;;;;;;4.57;0.63;;;11.10;99.90;;;;;;5050758;28;20373;-59
2023/11/19 00:06:30;;;;;;;0.70;0.50;;;11.10;99.90;;;;;;5052887;28;20430;-59
2023/11/19 00:08:55;;;;;;;0.80;0.60;;;11.10;99.90;;;;;;5058157;28;20411;-54
2023/11/19 00:11:21;;;;;;;1.27;1.15;;;11.10;99.90;;;;;;5052197;28;20079;-58
2023/11/19 00:13:46;;;;;;;2.33;1.13;;;11.20;99.90;;;;;;5052103;28;20063;-59
2023/11/19 00:16:12;;;;;;;2.38;0.80;;;11.20;99.90;;;;;;5048753;28;20030;-61
2023/11/19 00:18:37;;;;;;;1.77;0.80;;;11.10;99.90;;;;;;5047864;28;20045;-60
2023/11/19 00:21:03;;;;;;;6.05;0.88;;;11.10;99.90;;;;;;5048842;28;20097;-58
2023/11/19 00:23:29;;;;;;;1.77;0.70;;;11.20;99.90;;;;;;5051963;28;20494;-56
2023/11/19 00:25:54;;;;;;;3.85;0.80;;;11.10;99.90;;;;;;5049900;28;20549;-55
2023/11/19 00:28:20;;;;;;;1.38;0.52;;;11.20;99.90;;;;;;5050301;28;20024;-58
2023/11/19 00:30:45;;;;;;;10.45;0.93;;;11.20;99.90;;;;;;5048065;28;20033;-59
2023/11/19 00:33:11;;;;;;;1.67;0.80;;;11.20;99.90;;;;;;5048801;28;20107;-60
2023/11/19 00:35:37;;;;;;;3.10;0.50;;;11.20;99.90;;;;;;5052683;28;20021;-60
2023/11/19 00:38:03;;;;;;;1.40;0.50;;;11.20;99.90;;;;;;5053617;28;20033;-57
2023/11/19 00:40:29;;;;;;;4.65;0.80;;;11.20;99.90;;;;;;5048364;28;20036;-60
2023/11/19 00:42:55;;;;;;;5.00;1.10;;;11.20;99.90;;;;;;5051671;28;20025;-54
2023/11/19 00:45:20;;;;;;;4.22;1.00;;;11.20;99.90;;;;;;5051666;28;20376;-57
2023/11/19 00:47:46;;;;;;;3.65;1.23;;;11.30;99.90;;;;;;5052494;28;20487;-60
2023/11/19 00:50:12;;;;;;;4.03;1.00;;;11.30;99.90;;;;;;5049849;28;20044;-59
2023/11/19 00:52:38;;;;;;;2.00;0.85;;;11.30;99.90;;;;;;5052124;28;20033;-61
2023/11/19 00:55:05;;;;;;;2.17;1.02;;;11.30;99.90;;;;;;5047662;28;20036;-59
2023/11/19 00:57:33;;;;;;;4.57;1.00;;;11.30;99.90;;;;;;5054131;28;20078;-60
2023/11/19 00:59:59;;;;;;;6.65;0.80;;;11.40;99.90;;;;;;5044445;28;20480;-57
2023/11/19 01:02:25;;;;;;;9.90;1.15;;;11.40;99.90;;;;;;5049258;28;20026;-60
2023/11/19 01:04:52;;;;;;;14.07;1.05;;;11.40;99.90;;;;;;5045236;28;20092;-57
2023/11/19 01:07:17;;;;;;;9.88;0.90;;;11.50;99.90;;;;;;5048142;28;20025;-56
2023/11/19 01:09:43;;;;;;;2.55;0.88;;;11.50;99.90;;;;;;5045320;28;20037;-57
2023/11/19 01:12:11;;;;;;;1.77;1.00;;;11.50;99.90;;;;;;5047965;28;20021;-59
2023/11/19 01:14:37;;;;;;;5.55;0.98;;;11.60;99.90;;;;;;5061490;28;20103;-60
2023/11/19 01:17:04;;;;;;;3.70;0.70;;;11.60;99.90;;;;;;5054114;28;20107;-59
2023/11/19 01:19:30;;;;;;;5.68;0.82;;;11.80;99.90;;;;;;5047367;28;20091;-55
2023/11/19 01:21:55;;;;;;;1.30;0.88;;;11.80;99.90;;;;;;5049645;28;20475;-59
2023/11/19 01:24:21;;;;;;;3.47;0.70;;;11.90;99.90;;;;;;5053864;28;20025;-60
2023/11/19 01:26:46;;;;;;;8.43;1.13;;;12.10;99.90;;;;;;5050921;28;20032;-58
2023/11/19 01:29:15;;;;;;;9.25;1.00;;;12.10;99.90;;;;;;5052395;28;20033;-61
2023/11/19 01:31:42;;;;;;;4.50;0.80;;;12.20;99.90;;;;;;5051521;28;20051;-59
2023/11/19 01:34:08;;;;;;;7.57;1.20;;;12.20;99.90;;;;;;5054975;28;20040;-59
2023/11/19 01:36:34;;;;;;;11.38;1.15;;;12.30;99.90;;;;;;5050287;28;20025;-58
2023/11/19 01:38:59;;;;;;;4.60;1.25;;;12.40;99.90;;;;;;5043692;28;20068;-61
2023/11/19 01:41:25;;;;;;;11.55;1.90;;;12.30;99.90;;;;;;5049013;28;20028;-61
2023/11/19 01:43:50;;;;;;;5.13;1.63;;;12.40;99.90;;;;;;5050609;28;20418;-61
2023/11/19 01:46:16;;;;;;;6.40;1.70;;;12.50;99.90;;;;;;5048302;28;20031;-57
2023/11/19 01:48:46;;;;;;;5.30;1.30;;;12.70;99.90;;;;;;5055395;28;20024;-59
2023/11/19 01:51:12;;;;;;;3.40;1.50;;;12.80;99.90;;;;;;5051830;28;20021;-59
2023/11/19 01:53:40;;;;;;;3.53;1.63;;;12.80;99.90;;;;;;5054806;28;20032;-57
2023/11/19 01:56:08;;;;;;;6.65;1.63;;;12.90;99.90;;;;;;5050970;28;20048;-61
2023/11/19 01:58:38;;;;;;;5.22;1.40;;;13.00;99.90;;;;;;5048755;28;20028;-57
2023/11/19 02:01:08;;;;;;;7.50;1.98;;;13.20;99.90;;;;;;5054153;28;20033;-61
2023/11/19 02:03:34;;;;;;;9.02;2.08;;;13.20;99.90;;;;;;5049654;28;20017;-59
2023/11/19 02:06:00;;;;;;;8.52;1.65;;;13.30;99.90;;;;;;5048101;28;20438;-55
2023/11/19 02:08:26;;;;;;;4.45;1.58;;;13.30;99.90;;;;;;5050209;28;20028;-61
2023/11/19 02:10:52;;;;;;;9.73;1.80;;;13.30;99.90;;;;;;5050553;28;20087;-58
2023/11/19 02:13:18;;;;;;;10.75;1.77;;;13.30;99.90;;;;;;5052284;28;20387;-59
2023/11/19 02:15:44;;;;;;;10.60;1.85;;;13.30;99.90;;;;;;5047973;28;20113;-60
2023/11/19 02:18:27;;;;;;;9.10;2.00;;;13.30;99.90;;;;;;5051634;28;20104;-60
2023/11/19 02:20:54;;;;;;;10.60;1.77;;;13.30;99.90;;;;;;5052757;28;20048;-60
2023/11/19 02:23:21;;;;;;;11.23;1.50;;;13.30;99.90;;;;;;5054267;28;20096;-60
2023/11/19 02:26:00;;;;;;;7.13;1.55;;;13.30;99.90;;;;;;5053616;28;20033;-59
2023/11/19 02:28:26;;;;;;;10.48;1.83;;;13.30;99.90;;;;;;5051387;28;20033;-60
2023/11/19 02:30:53;;;;;;;12.52;1.52;;;13.20;99.90;;;;;;5052386;28;20073;-61
2023/11/19 02:33:18;;;;;;;10.95;1.70;;;13.30;99.90;;;;;;5052744;28;20059;-60
2023/11/19 02:35:44;;;;;;;9.75;1.40;;;13.20;99.90;;;;;;5054142;28;20430;-60
2023/11/19 02:38:10;;;;;;;12.13;2.20;;;13.20;99.90;;;;;;5052315;28;20112;-59
2023/11/19 02:40:36;;;;;;;10.05;1.98;;;13.20;99.90;;;;;;5054048;28;20509;-61
2023/11/19 02:43:04;;;;;;;12.30;1.65;;;13.20;99.90;;;;;;5054074;28;20021;-61
2023/11/19 02:45:30;;;;;;;6.60;1.85;;;13.20;99.90;;;;;;5053579;28;20609;-62
2023/11/19 02:47:56;;;;;;;14.70;1.95;;;13.00;99.90;;;;;;5052435;28;20056;-62
2023/11/19 02:50:25;;;;;;;11.77;1.70;;;13.00;99.90;;;;;;5052118;28;20108;-61
2023/11/19 02:52:53;;;;;;;13.52;2.42;;;13.20;99.90;;;;;;5051929;28;20017;-62
2023/11/19 02:55:19;;;;;;;7.35;1.55;;;13.00;99.90;;;;;;5053010;28;20534;-58
2023/11/19 02:57:48;;;;;;;15.05;2.00;;;13.00;99.90;;;;;;5049321;28;20021;-61
2023/11/19 03:00:18;;;;;;;15.82;3.17;;;13.10;99.90;;;;;;5053359;28;20028;-62
2023/11/19 03:02:46;;;;;;;15.98;1.73;;;13.10;99.90;;;;;;5049219;28;20039;-59
2023/11/19 03:05:14;;;;;;;11.05;1.67;;;13.10;99.90;;;;;;5050641;28;20032;-62
2023/11/19 03:07:43;;;;;;;9.05;1.83;;;12.90;99.90;;;;;;5052699;28;20024;-62
2023/11/19 03:10:13;;;;;;;11.93;2.10;;;13.00;99.90;;;;;;5052242;28;20518;-58
2023/11/19 03:12:42;;;;;;;7.88;1.55;;;12.90;99.90;;;;;;5050180;28;20017;-62
2023/11/19 03:15:11;;;;;;;14.82;1.52;;;12.80;99.90;;;;;;5049943;28;20494;-61
2023/11/19 03:17:40;;;;;;;19.83;2.17;;;12.90;99.90;;;;;;5046224;28;20048;-60
2023/11/19 03:20:17;;;;;;;9.90;1.98;;;12.90;99.90;;;;;;5048192;28;20062;-60
2023/11/19 03:22:43;;;;;;;8.77;2.13;;;12.90;99.90;;;;;;5048970;28;20025;-60
2023/11/19 03:25:09;;;;;;;10.68;1.80;;;12.90;99.90;;;;;;5048231;28;20124;-60
2023/11/19 03:27:39;;;;;;;14.00;1.80;;;13.00;99.90;;;;;;5044223;28;20151;-62
2023/11/19 03:30:05;;;;;;;13.02;2.03;;;12.90;99.90;;;;;;5048252;28;20487;-60
2023/11/19 03:32:32;;;;;;;10.52;2.17;;;12.80;99.90;;;;;;5047731;28;20033;-60
2023/11/19 03:34:59;;;;;;;12.02;1.73;;;12.80;99.90;;;;;;5050843;28;20017;-60
2023/11/19 03:37:25;;;;;;;17.98;2.45;;;12.80;99.90;;;;;;5050403;28;20082;-62
2023/11/19 03:39:51;;;;;;;11.57;2.25;;;12.90;99.90;;;;;;5047875;28;20136;-62
2023/11/19 03:42:19;;;;;;;14.32;2.22;;;13.00;99.90;;;;;;5045323;28;20056;-60
2023/11/19 03:44:44;;;;;;;10.60;2.20;;;12.90;99.90;;;;;;5046337;28;20021;-60
2023/11/19 03:47:10;;;;;;;12.27;1.80;;;12.90;99.90;;;;;;5049430;28;20430;-61
2023/11/19 03:49:36;;;;;;;19.90;2.70;;;12.90;99.90;;;;;;5049775;28;20055;-59
2023/11/19 03:52:01;;;;;;;13.32;2.30;;;12.90;99.90;;;;;;5052611;28;20021;-60
2023/11/19 03:54:27;;;;;;;14.07;2.45;;;12.90;99.90;;;;;;5052089;28;20028;-62
2023/11/19 03:56:53;;;;;;;9.88;2.25;;;13.00;99.90;;;;;;5051144;28;20028;-62
2023/11/19 03:59:20;;;;;;;16.83;1.83;;;13.00;99.90;;;;;;5052156;28;20104;-60
2023/11/19 04:01:46;;;;;;;11.93;2.28;;;13.00;99.90;;;;;;5052406;28;20602;-61
2023/11/19 04:04:12;;;;;;;14.05;1.67;;;13.00;99.90;;;;;;5051253;28;20029;-60
2023/11/19 04:06:37;;;;;;;16.90;2.40;;;13.00;99.90;;;;;;5052704;28;20070;-59
2023/11/19 04:09:03;;;;;;;10.75;1.92;;;13.00;99.90;;;;;;5051497;28;20028;-57
2023/11/19 04:11:29;;;;;;;21.92;2.10;;;13.10;99.90;;;;;;5052814;28;20076;-58
2023/11/19 04:13:54;;;;;;;17.40;2.10;;;13.00;99.90;;;;;;5050929;28;20021;-59
2023/11/19 04:16:27;;;;;;;10.63;1.73;;;13.20;99.90;;;;;;5048332;28;20487;-59
2023/11/19 04:18:53;;;;;;;10.43;1.90;;;13.20;99.90;;;;;;5058634;28;20572;-57
2023/11/19 04:21:18;;;;;;;18.73;2.58;;;13.20;99.90;;;;;;5051629;28;20056;-61
2023/11/19 04:23:44;;;;;;;25.67;2.60;;;13.30;99.90;;;;;;5055302;28;20029;-60
2023/11/19 04:26:09;;;;;;;14.73;1.98;;;13.30;99.90;;;;;;5055278;28;20033;-59
2023/11/19 04:28:35;;;;;;;12.57;1.65;;;13.30;99.90;;;;;;5055190;28;20024;-61
2023/11/19 04:31:01;;;;;;;19.58;2.75;;;13.20;99.90;;;;;;5053511;28;20028;-58
2023/11/19 04:33:26;;;;;;;15.90;2.60;;;13.30;99.90;;;;;;5049319;28;20041;-59
2023/11/19 04:35:52;;;;;;;25.17;3.47;;;13.30;99.90;;;;;;5049961;28;20033;-60
2023/11/19 04:38:17;;;;;;;15.63;2.13;;;13.40;99.90;;;;;;5055859;28;20039;-61
2023/11/19 04:40:43;;;;;;;21.35;3.35;;;13.40;99.90;;;;;;5054207;28;20670;-59
2023/11/19 04:43:09;;;;;;;26.23;2.88;;;13.40;99.90;;;;;;5050549;28;20462;-60
2023/11/19 04:45:34;;;;;;;19.83;2.70;;;13.40;99.90;;;;;;5043909;28;20557;-60
2023/11/19 04:48:00;;;;;;;13.88;2.13;;;13.30;99.90;;;;;;5048681;28;20091;-61
2023/11/19 04:50:27;;;;;;;16.95;2.80;;;13.30;99.90;;;;;;5052164;28;20029;-59
2023/11/19 04:52:53;;;;;;;14.85;2.42;;;13.30;99.90;;;;;;5050155;28;20067;-59
2023/11/19 04:55:19;;;;;;;17.38;2.38;;;13.30;99.90;;;;;;5051356;28;20023;-59
2023/11/19 04:57:44;;;;;;;13.93;2.38;;;13.40;99.90;;;;;;5054795;28;20100;-61
2023/11/19 05:00:11;;;;;;;20.17;2.35;;;13.30;99.90;;;;;;5051025;28;20096;-60
2023/11/19 05:02:37;;;;;;;17.33;3.50;;;13.20;99.90;;;;;;5053947;28;20037;-61
2023/11/19 05:05:04;;;;;;;10.93;2.50;;;13.20;99.90;;;;;;5047246;28;20127;-59
2023/11/19 05:07:30;;;;;;;12.80;2.15;;;13.20;99.90;;;;;;5052342;28;20437;-61
2023/11/19 05:09:55;;;;;;;12.68;2.28;;;13.20;99.90;;;;;;5054320;28;20104;-58
2023/11/19 05:12:21;;;;;;;15.63;2.35;;;13.10;99.90;;;;;;5050550;28;20401;-61
2023/11/19 05:14:49;;;;;;;9.27;2.30;;;13.10;99.90;;;;;;5051352;28;20660;-59
2023/11/19 05:17:17;;;;;;;27.77;2.55;;;13.00;99.90;;;;;;5050800;28;20016;-60
2023/11/19 05:19:43;;;;;;;18.90;2.50;;;13.00;99.90;;;;;;5050855;28;20090;-55
2023/11/19 05:22:09;;;;;;;13.60;2.40;;;12.90;99.90;;;;;;5052363;28;20507;-59
2023/11/19 05:24:35;;;;;;;23.17;3.85;;;12.90;99.90;;;;;;5050580;28;20491;-61
2023/11/19 05:27:01;;;;;;;31.10;2.83;;;12.90;99.90;;;;;;5051324;28;20103;-60
2023/11/19 05:29:27;;;;;;;24.55;2.60;;;12.90;99.90;;;;;;5050588;28;20033;-60
2023/11/19 05:31:55;;;;;;;18.65;2.88;;;12.90;99.90;;;;;;5049351;28;20036;-60
2023/11/19 05:34:21;;;;;;;23.30;3.53;;;12.80;99.90;;;;;;5049039;28;20029;-58
2023/11/19 05:36:46;;;;;;;20.13;2.95;;;12.80;99.90;;;;;;5050514;28;20102;-62
2023/11/19 05:39:12;;;;;;;21.95;2.88;;;12.80;99.90;;;;;;5050869;28;20029;-59
2023/11/19 05:41:37;;;;;;;22.08;2.70;;;12.90;99.90;;;;;;5050906;28;20390;-59
2023/11/19 05:44:03;;;;;;;25.35;3.25;;;12.80;99.90;;;;;;5049905;28;20376;-59
2023/11/19 05:46:28;;;;;;;24.83;2.90;;;12.90;99.90;;;;;;5046316;28;20530;-58
2023/11/19 05:48:54;;;;;;;28.35;3.17;;;13.00;99.90;;;;;;5049008;28;20052;-54
2023/11/19 05:51:20;;;;;;;16.35;2.55;;;12.90;99.90;;;;;;5050813;28;20498;-59
2023/11/19 05:53:45;;;;;;;26.65;3.10;;;12.90;99.90;;;;;;5047543;28;20047;-60
2023/11/19 05:56:11;;;;;;;20.83;2.50;;;12.90;99.90;;;;;;5050823;28;20390;-58
2023/11/19 05:58:37;;;;;;;21.35;2.88;;;12.80;99.90;;;;;;5050427;28;20033;-59
2023/11/19 06:01:04;;;;;;;16.58;2.42;;;12.90;99.90;;;;;;5047553;28;20021;-59
2023/11/19 06:03:30;;;;;;;25.23;3.70;;;13.00;99.90;;;;;;5048761;28;20124;-60
2023/11/19 06:05:55;;;;;;;19.63;3.53;;;13.00;99.90;;;;;;5050528;28;20179;-59
2023/11/19 06:08:21;;;;;;;25.10;3.67;;;12.90;99.90;;;;;;5050137;28;20543;-60
2023/11/19 06:10:47;;;;;;;33.20;5.22;;;12.80;99.90;;;;;;5050101;28;20494;-60
2023/11/19 06:13:14;;;;;;;30.00;3.65;;;13.00;99.90;;;;;;5048505;28;20391;-60
2023/11/19 06:15:43;;;;;;;33.72;4.40;;;13.00;99.90;;;;;;5049098;28;20049;-59
2023/11/19 06:18:09;;;;;;;30.90;4.32;;;12.90;99.90;;;;;;5045981;28;20021;-62
2023/11/19 06:20:35;;;;;;;19.08;3.58;;;12.90;99.90;;;;;;5048492;28;20597;-61
2023/11/19 06:23:01;;;;;;;26.27;3.90;;;12.90;99.90;;;;;;5050524;28;20119;-59
2023/11/19 06:25:27;;;;;;;27.70;3.65;;;12.80;99.90;;;;;;5047605;28;20500;-58
2023/11/19 06:27:53;;;;;;;34.53;4.47;;;12.80;99.90;;;;;;5050082;28;20078;-60
2023/11/19 06:30:20;;;;;;;21.33;2.90;;;12.80;99.90;;;;;;5045861;28;20570;-60
2023/11/19 06:32:46;;;;;;;29.13;3.40;;;12.80;99.90;;;;;;5046384;28;20021;-62
2023/11/19 06:35:13;;;;;;;22.40;3.13;;;12.80;99.90;;;;;;5044543;28;20391;-59
2023/11/19 06:37:39;;;;;;;39.83;3.97;;;12.70;99.90;;;;;;5047596;28;20009;-59
2023/11/19 06:40:05;;;;;;;21.30;4.22;;;12.60;99.90;;;;;;5045423;28;20035;-61
2023/11/19 06:42:31;;;;;;;31.27;4.68;;;12.70;99.90;;;;;;5048670;28;20110;-58
2023/11/19 06:44:57;;;;;;;20.77;3.05;;;12.80;99.90;;;;;;5047815;28;20447;-60
2023/11/19 06:47:27;;;;;;;31.95;3.83;;;12.90;99.90;;;;;;5051000;28;20523;-60
2023/11/19 06:49:53;;;;;;;33.70;4.35;;;12.80;99.90;;;;;;5047077;28;20030;-58
2023/11/19 06:52:18;;;;;;;27.65;3.88;;;12.80;99.90;;;;;;5048017;28;20534;-61
2023/11/19 06:54:45;;;;;;;44.10;4.68;;;12.80;99.90;;;;;;5048072;28;20063;-58
2023/11/19 06:57:11;;;;;;;26.88;4.25;;;12.80;99.90;;;;;;5045157;28;20024;-60
2023/11/19 06:59:37;;;;;;;21.73;3.50;;;12.90;99.90;;;;;;5047530;28;20491;-60
2023/11/19 07:02:04;;;;;;;21.55;4.82;;;12.80;99.90;;;;;;5048887;28;20025;-60
2023/11/19 07:04:30;;;;;;;30.85;4.28;;;12.90;99.90;;;;;;5045910;28;20399;-59
2023/11/19 07:06:55;;;;;;;36.45;3.97;;;12.80;99.90;;;;;;5053231;28;20032;-60
2023/11/19 07:09:21;;;;;;;22.10;5.00;;;12.80;99.90;;;;;;5051765;28;20025;-60
2023/11/19 07:11:50;;;;;;;29.83;4.45;;;12.70;99.90;;;;;;5052327;28;20036;-59
2023/11/19 07:14:16;;;;;;;31.00;4.10;;;12.80;99.90;;;;;;5053788;28;20025;-61
2023/11/19 07:16:42;;;;;;;35.53;4.18;;;12.80;99.90;;;;;;5050325;28;20037;-58
2023/11/19 07:19:08;;;;;;;19.80;2.97;;;12.70;99.90;;;;;;5042815;28;20025;-56
2023/11/19 07:21:34;;;;;;;24.10;3.80;;;12.70;99.90;;;;;;5042134;28;20399;-58
2023/11/19 07:23:59;;;;;;;20.67;3.72;;;12.70;99.90;;;;;;5045134;28;20668;-55
2023/11/19 07:26:26;;;;;;;23.75;4.03;;;12.70;99.90;;;;;;5049511;28;20501;-55
2023/11/19 07:28:52;;;;;;;23.58;3.30;;;12.60;99.90;;;;;;5048878;28;20080;-58
2023/11/19 07:31:20;;;;;;;30.73;4.05;;;12.70;99.90;;;;;;5045451;28;20021;-60
2023/11/19 07:33:47;;;;;;;23.55;4.47;;;12.60;99.90;;;;;;5048397;28;20017;-60
2023/11/19 07:36:13;;;;;;;28.08;4.32;;;12.60;99.90;;;;;;5048503;28;20029;-60
2023/11/19 07:38:39;;;;;;;30.50;3.83;;;12.50;99.90;;;;;;5046724;28;20029;-57
2023/11/19 07:41:06;;;;;;;24.95;3.63;;;12.50;99.90;;;;;;5043767;28;20104;-58
2023/11/19 07:43:32;;;;;;;30.98;4.07;;;12.60;99.90;;;;;;5041888;28;20499;-55
2023/11/19 07:45:59;;;;;;;28.38;3.90;;;12.50;99.90;;;;;;5048663;28;20037;-61
2023/11/19 07:48:25;;;;;;;37.50;4.32;;;12.60;99.90;;;;;;5050421;28;20399;-57
2023/11/19 07:50:52;;;;;;;27.10;3.65;;;12.60;99.90;;;;;;5046652;28;20025;-65
2023/11/19 07:53:19;;;;;;;31.77;3.33;;;12.60;99.90;;;;;;5051933;28;20127;-57
2023/11/19 07:55:45;;;;;;;36.53;5.15;;;12.60;99.90;;;;;;5048982;28;20025;-59
2023/11/19 07:58:11;;;;;;;30.75;4.95;;;12.70;99.90;;;;;;5049617;28;20103;-58
2023/11/19 08:00:37;;;;;;;37.63;4.22;;;12.60;99.90;;;;;;5046314;28;20064;-60
2023/11/19 08:03:04;;;;;;;29.85;5.45;;;12.60;99.90;;;;;;5048593;28;20086;-60
2023/11/19 08:05:29;;;;;;;39.10;4.50;;;12.50;99.90;;;;;;5052526;28;20021;-62
2023/11/19 08:07:55;;;;;;;35.72;4.50;;;12.50;99.90;;;;;;5044523;28;20087;-59
2023/11/19 08:10:20;;;;;;;32.10;4.40;;;12.40;99.90;;;;;;5047635;28;20029;-58
2023/11/19 08:12:46;;;;;;;28.90;4.05;;;12.40;99.90;;;;;;5050074;28;20039;-61
2023/11/19 08:15:11;;;;;;;28.55;4.30;;;12.50;99.90;;;;;;5048874;28;20024;-58
2023/11/19 08:17:37;;;;;;;34.10;3.95;;;12.40;99.90;;;;;;5046566;28;20025;-60
2023/11/19 08:20:04;;;;;;;34.72;4.30;;;12.50;99.90;;;;;;5050613;28;20407;-60
2023/11/19 08:22:31;;;;;;;29.65;5.03;;;12.60;99.90;;;;;;5050319;28;20029;-58
2023/11/19 08:24:56;;;;;;;28.27;3.95;;;12.50;99.90;;;;;;5051497;28;20036;-58
2023/11/19 08:27:26;;;;;;;33.08;4.45;;;12.60;99.90;;;;;;5047659;28;20086;-60
2023/11/19 08:29:55;;;;;;;29.52;4.30;;;12.70;99.90;;;;;;5050638;28;20025;-59
2023/11/19 08:32:45;;;;;;;24.17;4.95;;;12.70;99.90;;;;;;5051084;28;20031;-57
2023/11/19 08:35:11;;;;;;;30.70;4.47;;;12.90;99.90;;;;;;5048829;28;20017;-60
2023/11/19 08:37:37;;;;;;;28.42;5.00;;;12.90;99.90;;;;;;5047752;28;20033;-59
2023/11/19 08:40:04;;;;;;;29.50;3.75;;;12.90;99.90;;;;;;5049329;28;20493;-58
2023/11/19 08:42:30;;;;;;;24.60;4.43;;;12.90;99.90;;;;;;5046375;28;20017;-60
2023/11/19 08:44:55;;;;;;;31.30;4.55;;;12.90;99.90;;;;;;5047688;28;20498;-53
2023/11/19 08:47:22;;;;;;;29.33;3.95;;;13.00;99.90;;;;;;5052551;28;20406;-55
2023/11/19 08:49:50;;;;;;;34.53;4.43;;;13.00;99.90;;;;;;5047895;28;20017;-60
2023/11/19 08:52:17;;;;;;;31.20;4.10;;;13.00;99.90;;;;;;5045552;28;20021;-60
2023/11/19 08:54:43;;;;;;;30.27;4.18;;;13.10;99.90;;;;;;5040827;28;20052;-59
2023/11/19 08:57:09;;;;;;;26.58;3.63;;;13.00;99.90;;;;;;5041634;28;20048;-61
2023/11/19 08:59:35;;;;;;;35.53;4.57;;;13.10;99.90;;;;;;5042000;28;20483;-60
2023/11/19 09:02:01;;;;;;;43.40;4.45;;;13.20;99.90;;;;;;5041586;28;20040;-59
2023/11/19 09:04:27;;;;;;;29.98;3.78;;;13.10;99.90;;;;;;5050150;28;20446;-61
2023/11/19 09:06:53;;;;;;;33.60;4.32;;;13.20;99.90;;;;;;5050106;28;20029;-60
2023/11/19 09:09:18;;;;;;;27.27;4.63;;;13.20;99.90;;;;;;5046240;28;20114;-59
2023/11/19 09:11:44;;;;;;;34.47;4.28;;;13.30;99.90;;;;;;5045148;28;20080;-58
2023/11/19 09:14:09;;;;;;;24.35;3.28;;;13.30;99.90;;;;;;5044481;28;20032;-58
2023/11/19 09:16:35;;;;;;;28.10;4.28;;;13.40;99.90;;;;;;5042806;28;20506;-58
2023/11/19 09:19:02;;;;;;;49.53;5.80;;;13.30;99.90;;;;;;5043276;28;20047;-59
2023/11/19 09:21:29;;;;;;;37.25;7.32;;;13.40;99.90;;;;;;5040424;28;20025;-60
2023/11/19 09:23:55;;;;;;;29.30;4.13;;;13.40;99.90;;;;;;5044275;28;20028;-61
2023/11/19 09:26:20;;;;;;;38.88;4.57;;;13.40;99.90;;;;;;5045607;28;20021;-58
2023/11/19 09:28:46;;;;;;;30.88;4.55;;;13.40;99.90;;;;;;5042610;28;20029;-60
2023/11/19 09:31:15;;;;;;;32.80;4.25;;;13.40;99.90;;;;;;5045412;28;20025;-60
2023/11/19 09:33:41;;;;;;;27.95;4.53;;;13.50;99.90;;;;;;5044182;28;20029;-59
2023/11/19 09:36:07;;;;;;;33.00;4.22;;;13.50;99.90;;;;;;5042218;28;20036;-62
2023/11/19 09:38:32;;;;;;;26.42;3.38;;;13.40;99.90;;;;;;5037216;28;20018;-61
2023/11/19 09:41:02;;;;;;;32.08;3.85;;;13.50;99.90;;;;;;5042370;28;20109;-59
2023/11/19 09:43:28;;;;;;;35.67;4.90;;;13.60;99.90;;;;;;5042710;28;20090;-59
2023/11/19 09:45:56;;;;;;;25.20;4.72;;;13.60;99.90;;;;;;5041846;28;20029;-60
2023/11/19 09:48:23;;;;;;;33.50;4.60;;;13.70;99.90;;;;;;5041668;28;20036;-62
2023/11/19 09:50:51;;;;;;;27.50;3.72;;;13.80;99.90;;;;;;5051029;28;20144;-63
2023/11/19 09:53:17;;;;;;;31.95;4.43;;;14.00;99.90;;;;;;5049685;28;20025;-57
2023/11/19 09:55:43;;;;;;;32.28;4.40;;;14.00;99.90;;;;;;5048835;28;20025;-55
2023/11/19 09:58:11;;;;;;;27.45;4.30;;;14.00;99.90;;;;;;5049661;28;20021;-60
2023/11/19 10:00:37;;;;;;;25.05;4.68;;;14.10;99.90;;;;;;5036594;28;20589;-60
2023/11/19 10:03:06;;;;;;;35.85;3.30;;;14.10;99.90;;;;;;5046378;28;20155;-57
2023/11/19 10:05:32;;;;;;;20.95;4.35;;;14.30;99.90;;;;;;5047732;28;20546;-61
2023/11/19 10:07:58;;;;;;;22.40;3.78;;;14.30;99.90;;;;;;5046787;28;20052;-63
2023/11/19 10:10:23;;;;;;;27.90;3.92;;;14.20;99.90;;;;;;5050322;28;20382;-61
2023/11/19 10:12:51;;;;;;;35.58;4.60;;;14.20;99.90;;;;;;5047621;28;20108;-61
2023/11/19 10:15:22;;;;;;;32.75;4.32;;;14.30;99.90;;;;;;5044149;28;20048;-62
2023/11/19 10:17:48;;;;;;;22.63;3.40;;;14.20;99.90;;;;;;5041163;28;20025;-61
2023/11/19 10:20:14;;;;;;;29.45;3.63;;;14.30;99.90;;;;;;5041462;28;20025;-62
2023/11/19 10:22:39;;;;;;;34.92;3.80;;;14.30;99.90;;;;;;5042621;28;20446;-61
2023/11/19 10:25:26;;;;;;;25.55;3.42;;;14.30;99.90;;;;;;5045486;28;20025;-62
2023/11/19 10:27:52;;;;;;;28.77;4.05;;;14.20;99.90;;;;;;5044382;28;20059;-62
2023/11/19 10:30:24;;;;;;;33.95;4.53;;;14.10;99.90;;;;;;5050021;28;20111;-61
2023/11/19 10:33:09;;;;;;;26.65;3.63;;;14.20;99.90;;;;;;5046683;28;20025;-63
2023/11/19 10:36:02;;;;;;;21.20;3.30;;;14.30;99.90;;;;;;5049682;28;20588;-60
2023/11/19 10:38:27;;;;;;;38.63;4.38;;;14.20;99.90;;;;;;5038988;28;20044;-62
2023/11/19 10:40:57;;;;;;;26.27;5.03;;;14.20;99.90;;;;;;5050369;28;20495;-61
2023/11/19 10:43:23;;;;;;;25.92;3.20;;;14.30;99.90;;;;;;5045134;28;20151;-63
2023/11/19 10:45:49;;;;;;;32.28;3.90;;;14.50;99.90;;;;;;5050578;28;20025;-61
2023/11/19 10:48:15;;;;;;;29.75;4.18;;;14.60;99.90;;;;;;5053274;28;20036;-60
2023/11/19 10:50:42;;;;;;;30.65;4.38;;;14.50;99.90;;;;;;5046330;28;20405;-61
2023/11/19 10:53:12;;;;;;;29.63;4.30;;;14.50;99.90;;;;;;5050513;28;20055;-62
2023/11/19 10:55:39;;;;;;;23.17;4.57;;;14.60;99.90;;;;;;5047178;28;20041;-61
2023/11/19 10:58:16;;;;;;;24.33;4.03;;;14.50;99.90;;;;;;5048790;28;20021;-61
2023/11/19 11:00:50;;;;;;;23.90;3.90;;;14.40;99.90;;;;;;5049965;28;20491;-59
2023/11/19 11:03:19;;;;;;;26.45;3.95;;;14.40;99.90;;;;;;5045298;28;20033;-60
2023/11/19 11:05:47;;;;;;;28.60;4.55;;;14.40;99.90;;;;;;5050385;28;20036;-63
2023/11/19 11:08:13;;;;;;;25.83;4.03;;;14.30;99.90;;;;;;5046353;28;20434;-61
2023/11/19 11:10:55;;;;;;;27.52;3.85;;;14.30;99.90;;;;;;5048864;28;20499;-59
2023/11/19 11:13:27;;;;;;;25.17;3.63;;;14.30;99.90;;;;;;5050812;28;20466;-63
2023/11/19 11:15:56;;;;;;;31.27;3.95;;;14.30;99.90;;;;;;5054912;28;20108;-62
2023/11/19 11:18:23;;;;;;;30.52;3.70;;;14.40;99.90;;;;;;5050032;28;20021;-61
2023/11/19 11:20:51;;;;;;;23.95;3.80;;;14.50;99.90;;;;;;5046361;28;20033;-59
2023/11/19 11:23:54;;;;;;;23.45;3.92;;;14.50;99.90;;;;;;5054534;28;20032;-61
2023/11/19 11:26:28;;;;;;;24.85;3.40;;;14.80;99.90;;;;;;5053493;28;20029;-60
2023/11/19 11:29:03;;;;;;;29.30;3.95;;;14.80;99.90;;;;;;5048357;28;20040;-63
2023/11/19 11:32:07;;;;;;;33.28;3.20;;;14.90;99.90;;;;;;5045949;28;20021;-63
2023/11/19 11:34:51;;;;;;;33.80;4.63;;;14.80;99.90;;;;;;5052524;28;20608;-63
2023/11/19 11:37:30;;;;;;;26.00;3.67;;;14.60;99.90;;;;;;5048414;28;20052;-62
2023/11/19 11:39:59;;;;;;;31.40;3.42;;;14.70;99.90;;;;;;5045375;28;20032;-59
2023/11/19 11:42:27;;;;;;;17.88;2.65;;;14.70;99.90;;;;;;5051461;28;20473;-63
2023/11/19 11:45:04;;;;;;;36.97;4.70;;;14.70;99.90;;;;;;5049467;28;20721;-62
2023/11/19 11:47:42;;;;;;;26.88;3.38;;;14.60;99.90;;;;;;5049009;28;20075;-62
2023/11/19 11:50:09;;;;;;;25.42;3.45;;;14.60;99.90;;;;;;5049222;28;20021;-62
2023/11/19 11:53:02;;;;;;;21.63;3.42;;;14.60;99.90;;;;;;5045425;28;20132;-62
2023/11/19 11:55:49;;;;;;;22.38;2.97;;;14.60;99.90;;;;;;5047761;28;20037;-63
2023/11/19 11:58:25;;;;;;;24.90;2.88;;;14.80;99.90;;;;;;5045408;28;20523;-61
2023/11/19 12:00:52;;;;;;;16.70;2.80;;;14.80;99.90;;;;;;5048498;28;20028;-59
2023/11/19 12:03:24;;;;;;;18.58;2.40;;;14.90;99.90;;;;;;5049127;28;20116;-62
2023/11/19 12:05:50;;;;;;;21.70;3.30;;;14.90;99.90;;;;;;5046516;28;20649;-61
2023/11/19 12:08:20;;;;;;;20.75;2.85;;;15.10;99.90;;;;;;5045032;28;20039;-62
2023/11/19 12:10:53;;;;;;;21.38;2.80;;;15.40;99.90;;;;;;5043624;28;20029;-59
2023/11/19 12:13:21;;;;;;;21.10;2.53;;;15.40;99.90;;;;;;5044285;28;20029;-60
2023/11/19 12:15:56;;;;;;;17.65;3.55;;;15.30;99.90;;;;;;5045209;28;20034;-62
2023/11/19 12:18:23;;;;;;;26.33;3.30;;;15.20;99.90;;;;;;5044481;28;20107;-59
2023/11/19 12:20:48;;;;;;;20.88;2.97;;;15.50;99.90;;;;;;5045298;28;20064;-60
2023/11/19 12:23:14;;;;;;;32.67;4.07;;;15.60;99.90;;;;;;5049677;28;20556;-59
2023/11/19 12:25:40;;;;;;;17.58;3.03;;;15.60;99.90;;;;;;5044538;28;20025;-60
2023/11/19 12:28:11;;;;;;;17.88;3.25;;;15.60;99.90;;;;;;5044972;28;20051;-60
2023/11/19 12:30:37;;;;;;;26.13;3.38;;;15.60;99.90;;;;;;5045619;28;20033;-63
2023/11/19 12:33:09;;;;;;;24.67;3.38;;;15.60;99.90;;;;;;5048102;28;20070;-64
2023/11/19 12:35:42;;;;;;;23.42;3.22;;;15.70;99.90;;;;;;5045389;28;20025;-60
2023/11/19 12:38:17;;;;;;;22.70;3.07;;;15.30;99.90;;;;;;5045884;28;20024;-63
2023/11/19 12:40:43;;;;;;;25.20;3.80;;;15.20;99.90;;;;;;5050002;28;20043;-63